sensor_id;sensor_type;location;lat;lon;timestamp;temperature;humidity
13848;DHT22;6994;49.752;6.094;2023-05-27T00:02:09;12.10;96.30
13848;DHT22;6994;49.752;6.094;2023-05-27T00:04:36;12.10;96.40
13848;DHT22;6994;49.752;6.094;2023-05-27T00:07:03;12.00;96.40
13848;DHT22;6994;49.752;6.094;2023-05-27T00:09:30;12.00;96.50
13848;DHT22;6994;49.752;6.094;2023-05-27T00:11:58;11.90;96.90
13848;DHT22;6994;49.752;6.094;2023-05-27T00:14:26;11.90;96.60
13848;DHT22;6994;49.752;6.094;2023-05-27T00:16:54;11.90;96.60
13848;DHT22;6994;49.752;6.094;2023-05-27T00:19:22;11.90;96.60
13848;DHT22;6994;49.752;6.094;2023-05-27T00:21:50;11.90;96.70
13848;DHT22;6994;49.752;6.094;2023-05-27T00:24:18;11.90;96.60
13848;DHT22;6994;49.752;6.094;2023-05-27T00:26:46;11.90;96.70
13848;DHT22;6994;49.752;6.094;2023-05-27T00:29:15;11.80;96.60
13848;DHT22;6994;49.752;6.094;2023-05-27T00:31:41;11.80;96.70
13848;DHT22;6994;49.752;6.094;2023-05-27T00:34:08;11.80;96.70
13848;DHT22;6994;49.752;6.094;2023-05-27T00:36:35;11.80;96.80
13848;DHT22;6994;49.752;6.094;2023-05-27T00:39:02;11.80;96.80
13848;DHT22;6994;49.752;6.094;2023-05-27T00:41:29;11.80;96.80
13848;DHT22;6994;49.752;6.094;2023-05-27T00:43:57;11.80;96.80
13848;DHT22;6994;49.752;6.094;2023-05-27T00:46:24;11.80;96.80
13848;DHT22;6994;49.752;6.094;2023-05-27T00:48:51;11.80;96.80
13848;DHT22;6994;49.752;6.094;2023-05-27T00:51:18;11.80;96.80
13848;DHT22;6994;49.752;6.094;2023-05-27T00:53:45;11.80;96.80
13848;DHT22;6994;49.752;6.094;2023-05-27T00:56:13;11.80;96.90
13848;DHT22;6994;49.752;6.094;2023-05-27T00:58:41;11.70;96.80
13848;DHT22;6994;49.752;6.094;2023-05-27T01:01:08;11.70;96.90
13848;DHT22;6994;49.752;6.094;2023-05-27T01:03:35;11.70;96.90
13848;DHT22;6994;49.752;6.094;2023-05-27T01:06:15;11.70;97.00
13848;DHT22;6994;49.752;6.094;2023-05-27T01:08:57;11.90;97.30
13848;DHT22;6994;49.752;6.094;2023-05-27T01:11:21;12.20;97.00
13848;DHT22;6994;49.752;6.094;2023-05-27T01:13:50;12.20;96.60
13848;DHT22;6994;49.752;6.094;2023-05-27T01:16:16;12.00;96.60
13848;DHT22;6994;49.752;6.094;2023-05-27T01:18:46;12.00;96.70
13848;DHT22;6994;49.752;6.094;2023-05-27T01:21:15;11.90;96.80
13848;DHT22;6994;49.752;6.094;2023-05-27T01:23:42;11.80;96.90
13848;DHT22;6994;49.752;6.094;2023-05-27T01:26:10;11.80;97.00
13848;DHT22;6994;49.752;6.094;2023-05-27T01:28:38;11.80;97.10
13848;DHT22;6994;49.752;6.094;2023-05-27T01:31:13;11.70;97.20
13848;DHT22;6994;49.752;6.094;2023-05-27T01:33:40;11.70;97.10
13848;DHT22;6994;49.752;6.094;2023-05-27T01:36:10;11.70;97.20
13848;DHT22;6994;49.752;6.094;2023-05-27T01:38:33;11.60;97.30
13848;DHT22;6994;49.752;6.094;2023-05-27T01:41:00;11.60;97.30
13848;DHT22;6994;49.752;6.094;2023-05-27T01:43:28;11.50;97.40
13848;DHT22;6994;49.752;6.094;2023-05-27T01:45:56;11.50;97.50
13848;DHT22;6994;49.752;6.094;2023-05-27T01:48:24;11.50;97.50
13848;DHT22;6994;49.752;6.094;2023-05-27T01:50:52;11.50;97.60
13848;DHT22;6994;49.752;6.094;2023-05-27T01:53:19;11.50;97.60
13848;DHT22;6994;49.752;6.094;2023-05-27T01:55:47;11.50;97.70
13848;DHT22;6994;49.752;6.094;2023-05-27T01:58:14;11.40;97.70
13848;DHT22;6994;49.752;6.094;2023-05-27T02:00:41;11.40;97.70
13848;DHT22;6994;49.752;6.094;2023-05-27T02:03:08;11.40;97.80
13848;DHT22;6994;49.752;6.094;2023-05-27T02:05:36;11.40;97.80
13848;DHT22;6994;49.752;6.094;2023-05-27T02:08:03;11.40;97.80
13848;DHT22;6994;49.752;6.094;2023-05-27T02:10:30;11.50;98.20
13848;DHT22;6994;49.752;6.094;2023-05-27T02:12:57;11.60;97.80
13848;DHT22;6994;49.752;6.094;2023-05-27T02:15:25;11.50;98.00
13848;DHT22;6994;49.752;6.094;2023-05-27T02:17:53;11.40;97.80
13848;DHT22;6994;49.752;6.094;2023-05-27T02:20:21;11.40;97.90
13848;DHT22;6994;49.752;6.094;2023-05-27T02:22:52;11.30;98.00
13848;DHT22;6994;49.752;6.094;2023-05-27T02:25:20;11.30;98.00
13848;DHT22;6994;49.752;6.094;2023-05-27T02:27:48;11.20;98.10
13848;DHT22;6994;49.752;6.094;2023-05-27T02:30:15;11.20;98.10
13848;DHT22;6994;49.752;6.094;2023-05-27T02:32:42;11.20;98.20
13848;DHT22;6994;49.752;6.094;2023-05-27T02:35:12;11.10;98.20
13848;DHT22;6994;49.752;6.094;2023-05-27T02:37:37;11.10;98.30
13848;DHT22;6994;49.752;6.094;2023-05-27T02:40:04;11.10;98.40
13848;DHT22;6994;49.752;6.094;2023-05-27T02:42:31;11.00;98.50
13848;DHT22;6994;49.752;6.094;2023-05-27T02:44:58;11.00;98.60
13848;DHT22;6994;49.752;6.094;2023-05-27T02:47:26;11.00;98.70
13848;DHT22;6994;49.752;6.094;2023-05-27T02:49:53;10.90;98.70
13848;DHT22;6994;49.752;6.094;2023-05-27T02:52:20;10.90;98.80
13848;DHT22;6994;49.752;6.094;2023-05-27T02:54:47;10.90;98.90
13848;DHT22;6994;49.752;6.094;2023-05-27T02:57:15;10.90;99.00
13848;DHT22;6994;49.752;6.094;2023-05-27T02:59:42;10.90;99.00
13848;DHT22;6994;49.752;6.094;2023-05-27T03:02:09;10.80;99.10
13848;DHT22;6994;49.752;6.094;2023-05-27T03:04:37;10.80;99.50
13848;DHT22;6994;49.752;6.094;2023-05-27T03:07:05;10.80;99.20
13848;DHT22;6994;49.752;6.094;2023-05-27T03:09:33;10.80;99.30
13848;DHT22;6994;49.752;6.094;2023-05-27T03:12:01;11.00;99.70
13848;DHT22;6994;49.752;6.094;2023-05-27T03:14:29;11.00;99.40
13848;DHT22;6994;49.752;6.094;2023-05-27T03:16:56;11.00;99.40
13848;DHT22;6994;49.752;6.094;2023-05-27T03:19:23;11.00;99.20
13848;DHT22;6994;49.752;6.094;2023-05-27T03:21:51;11.10;99.60
13848;DHT22;6994;49.752;6.094;2023-05-27T03:24:18;11.10;99.60
13848;DHT22;6994;49.752;6.094;2023-05-27T03:26:46;11.10;99.20
13848;DHT22;6994;49.752;6.094;2023-05-27T03:29:13;11.10;99.20
13848;DHT22;6994;49.752;6.094;2023-05-27T03:31:40;11.00;99.30
13848;DHT22;6994;49.752;6.094;2023-05-27T03:34:07;10.90;99.40
13848;DHT22;6994;49.752;6.094;2023-05-27T03:36:34;11.10;99.90
13848;DHT22;6994;49.752;6.094;2023-05-27T03:39:02;11.00;99.90
13848;DHT22;6994;49.752;6.094;2023-05-27T03:41:29;11.00;99.50
13848;DHT22;6994;49.752;6.094;2023-05-27T03:43:56;10.90;99.90
13848;DHT22;6994;49.752;6.094;2023-05-27T03:46:24;10.80;99.90
13848;DHT22;6994;49.752;6.094;2023-05-27T03:48:52;10.80;99.90
13848;DHT22;6994;49.752;6.094;2023-05-27T03:51:20;10.70;99.90
13848;DHT22;6994;49.752;6.094;2023-05-27T03:53:48;10.70;99.90
13848;DHT22;6994;49.752;6.094;2023-05-27T03:56:16;10.70;99.90
13848;DHT22;6994;49.752;6.094;2023-05-27T03:58:44;10.70;99.90
13848;DHT22;6994;49.752;6.094;2023-05-27T04:01:12;10.70;99.90
13848;DHT22;6994;49.752;6.094;2023-05-27T04:03:39;10.70;99.90
13848;DHT22;6994;49.752;6.094;2023-05-27T04:06:06;10.70;99.90
13848;DHT22;6994;49.752;6.094;2023-05-27T04:08:33;10.70;99.90
13848;DHT22;6994;49.752;6.094;2023-05-27T04:11:01;10.70;99.90
13848;DHT22;6994;49.752;6.094;2023-05-27T04:13:28;10.70;99.90
13848;DHT22;6994;49.752;6.094;2023-05-27T04:15:56;10.60;99.90
13848;DHT22;6994;49.752;6.094;2023-05-27T04:18:23;10.60;99.90
13848;DHT22;6994;49.752;6.094;2023-05-27T04:20:50;10.60;99.90
13848;DHT22;6994;49.752;6.094;2023-05-27T04:23:17;10.60;99.90
13848;DHT22;6994;49.752;6.094;2023-05-27T04:25:45;10.80;99.90
13848;DHT22;6994;49.752;6.094;2023-05-27T04:28:12;10.90;99.90
13848;DHT22;6994;49.752;6.094;2023-05-27T04:30:39;11.10;99.90
13848;DHT22;6994;49.752;6.094;2023-05-27T04:33:06;11.20;99.90
13848;DHT22;6994;49.752;6.094;2023-05-27T04:35:33;11.40;99.90
13848;DHT22;6994;49.752;6.094;2023-05-27T04:38:01;11.40;99.90
13848;DHT22;6994;49.752;6.094;2023-05-27T04:40:29;11.40;99.90
13848;DHT22;6994;49.752;6.094;2023-05-27T04:42:57;11.30;99.90
13848;DHT22;6994;49.752;6.094;2023-05-27T04:45:25;11.30;99.90
13848;DHT22;6994;49.752;6.094;2023-05-27T04:47:52;11.30;99.90
13848;DHT22;6994;49.752;6.094;2023-05-27T04:50:19;11.30;99.90
13848;DHT22;6994;49.752;6.094;2023-05-27T04:52:46;11.30;99.90
13848;DHT22;6994;49.752;6.094;2023-05-27T04:55:13;11.50;99.90
13848;DHT22;6994;49.752;6.094;2023-05-27T04:57:41;11.60;99.90
13848;DHT22;6994;49.752;6.094;2023-05-27T05:00:08;11.70;99.90
13848;DHT22;6994;49.752;6.094;2023-05-27T05:02:35;11.70;99.90
13848;DHT22;6994;49.752;6.094;2023-05-27T05:05:03;11.90;99.90
13848;DHT22;6994;49.752;6.094;2023-05-27T05:07:29;12.00;99.90
13848;DHT22;6994;49.752;6.094;2023-05-27T05:09:57;12.00;99.90
13848;DHT22;6994;49.752;6.094;2023-05-27T05:12:24;12.00;99.90
13848;DHT22;6994;49.752;6.094;2023-05-27T05:14:51;12.00;99.90
13848;DHT22;6994;49.752;6.094;2023-05-27T05:17:18;12.00;99.90
13848;DHT22;6994;49.752;6.094;2023-05-27T05:19:45;11.90;99.90
13848;DHT22;6994;49.752;6.094;2023-05-27T05:22:13;12.00;99.90
13848;DHT22;6994;49.752;6.094;2023-05-27T05:24:40;12.00;99.90
13848;DHT22;6994;49.752;6.094;2023-05-27T05:27:07;12.10;99.90
13848;DHT22;6994;49.752;6.094;2023-05-27T05:29:34;12.10;99.90
13848;DHT22;6994;49.752;6.094;2023-05-27T05:32:02;12.20;99.90
13848;DHT22;6994;49.752;6.094;2023-05-27T05:34:29;12.20;99.90
13848;DHT22;6994;49.752;6.094;2023-05-27T05:36:56;12.30;99.90
13848;DHT22;6994;49.752;6.094;2023-05-27T05:39:23;12.30;99.90
13848;DHT22;6994;49.752;6.094;2023-05-27T05:41:50;12.40;99.90
13848;DHT22;6994;49.752;6.094;2023-05-27T05:44:18;12.40;99.90
13848;DHT22;6994;49.752;6.094;2023-05-27T05:46:45;12.50;99.90
13848;DHT22;6994;49.752;6.094;2023-05-27T05:49:12;12.60;99.90
13848;DHT22;6994;49.752;6.094;2023-05-27T05:51:39;12.60;99.90
13848;DHT22;6994;49.752;6.094;2023-05-27T05:54:07;12.80;99.90
13848;DHT22;6994;49.752;6.094;2023-05-27T05:56:35;13.00;99.90
13848;DHT22;6994;49.752;6.094;2023-05-27T05:59:03;13.10;99.90
13848;DHT22;6994;49.752;6.094;2023-05-27T06:01:30;13.10;99.90
13848;DHT22;6994;49.752;6.094;2023-05-27T06:03:57;13.20;99.90
13848;DHT22;6994;49.752;6.094;2023-05-27T06:06:25;13.20;99.90
13848;DHT22;6994;49.752;6.094;2023-05-27T06:08:52;13.30;99.90
13848;DHT22;6994;49.752;6.094;2023-05-27T06:11:19;13.30;99.90
13848;DHT22;6994;49.752;6.094;2023-05-27T06:13:46;13.60;99.90
13848;DHT22;6994;49.752;6.094;2023-05-27T06:16:13;13.70;99.90
13848;DHT22;6994;49.752;6.094;2023-05-27T06:18:41;13.70;99.90
13848;DHT22;6994;49.752;6.094;2023-05-27T06:21:08;13.80;99.90
13848;DHT22;6994;49.752;6.094;2023-05-27T06:23:35;13.80;99.90
13848;DHT22;6994;49.752;6.094;2023-05-27T06:26:02;13.80;99.90
13848;DHT22;6994;49.752;6.094;2023-05-27T06:28:30;13.90;99.90
13848;DHT22;6994;49.752;6.094;2023-05-27T06:30:57;13.90;99.90
13848;DHT22;6994;49.752;6.094;2023-05-27T06:33:24;13.90;99.90
13848;DHT22;6994;49.752;6.094;2023-05-27T06:35:51;14.00;99.90
13848;DHT22;6994;49.752;6.094;2023-05-27T06:38:18;14.00;99.90
13848;DHT22;6994;49.752;6.094;2023-05-27T06:40:46;14.30;99.90
13848;DHT22;6994;49.752;6.094;2023-05-27T06:43:13;14.70;99.70
13848;DHT22;6994;49.752;6.094;2023-05-27T06:45:41;14.80;99.90
13848;DHT22;6994;49.752;6.094;2023-05-27T06:48:08;14.80;99.70
13848;DHT22;6994;49.752;6.094;2023-05-27T06:50:35;14.80;99.90
13848;DHT22;6994;49.752;6.094;2023-05-27T06:53:03;14.80;99.90
13848;DHT22;6994;49.752;6.094;2023-05-27T06:55:30;14.80;99.90
13848;DHT22;6994;49.752;6.094;2023-05-27T06:57:58;14.80;99.90
13848;DHT22;6994;49.752;6.094;2023-05-27T07:00:25;14.90;99.90
13848;DHT22;6994;49.752;6.094;2023-05-27T07:02:52;15.10;99.30
13848;DHT22;6994;49.752;6.094;2023-05-27T07:05:19;15.20;99.40
13848;DHT22;6994;49.752;6.094;2023-05-27T07:07:46;15.30;99.20
13848;DHT22;6994;49.752;6.094;2023-05-27T07:10:14;15.50;99.10
13848;DHT22;6994;49.752;6.094;2023-05-27T07:12:41;15.60;99.00
13848;DHT22;6994;49.752;6.094;2023-05-27T07:15:08;15.60;98.80
13848;DHT22;6994;49.752;6.094;2023-05-27T07:17:35;15.60;98.80
13848;DHT22;6994;49.752;6.094;2023-05-27T07:20:02;15.60;98.60
13848;DHT22;6994;49.752;6.094;2023-05-27T07:22:30;15.70;98.40
13848;DHT22;6994;49.752;6.094;2023-05-27T07:24:57;15.90;97.20
13848;DHT22;6994;49.752;6.094;2023-05-27T07:27:24;16.00;97.40
13848;DHT22;6994;49.752;6.094;2023-05-27T07:29:51;16.30;97.50
13848;DHT22;6994;49.752;6.094;2023-05-27T07:32:18;16.40;97.10
13848;DHT22;6994;49.752;6.094;2023-05-27T07:34:46;16.30;97.30
13848;DHT22;6994;49.752;6.094;2023-05-27T07:37:13;16.40;97.20
13848;DHT22;6994;49.752;6.094;2023-05-27T07:39:41;16.30;97.10
13848;DHT22;6994;49.752;6.094;2023-05-27T07:42:09;16.40;97.20
13848;DHT22;6994;49.752;6.094;2023-05-27T07:44:37;16.40;97.00
13848;DHT22;6994;49.752;6.094;2023-05-27T07:47:04;16.40;97.00
13848;DHT22;6994;49.752;6.094;2023-05-27T07:49:31;16.40;97.00
13848;DHT22;6994;49.752;6.094;2023-05-27T07:51:58;16.50;97.30
13848;DHT22;6994;49.752;6.094;2023-05-27T07:54:26;16.70;96.80
13848;DHT22;6994;49.752;6.094;2023-05-27T07:56:53;16.80;96.50
13848;DHT22;6994;49.752;6.094;2023-05-27T07:59:20;17.10;96.30
13848;DHT22;6994;49.752;6.094;2023-05-27T08:01:47;17.20;96.50
13848;DHT22;6994;49.752;6.094;2023-05-27T08:04:14;17.20;96.30
13848;DHT22;6994;49.752;6.094;2023-05-27T08:06:42;17.20;96.10
13848;DHT22;6994;49.752;6.094;2023-05-27T08:09:10;17.20;96.40
13848;DHT22;6994;49.752;6.094;2023-05-27T08:11:38;17.20;96.10
13848;DHT22;6994;49.752;6.094;2023-05-27T08:14:05;17.20;96.00
13848;DHT22;6994;49.752;6.094;2023-05-27T08:16:32;17.30;96.10
13848;DHT22;6994;49.752;6.094;2023-05-27T08:18:59;17.60;96.00
13848;DHT22;6994;49.752;6.094;2023-05-27T08:21:26;17.90;95.70
13848;DHT22;6994;49.752;6.094;2023-05-27T08:23:54;18.00;95.60
13848;DHT22;6994;49.752;6.094;2023-05-27T08:26:21;18.00;95.80
13848;DHT22;6994;49.752;6.094;2023-05-27T08:28:48;18.00;96.10
13848;DHT22;6994;49.752;6.094;2023-05-27T08:31:15;18.20;95.30
13848;DHT22;6994;49.752;6.094;2023-05-27T08:33:42;18.30;95.10
13848;DHT22;6994;49.752;6.094;2023-05-27T08:36:10;18.30;95.50
13848;DHT22;6994;49.752;6.094;2023-05-27T08:38:38;18.30;95.50
13848;DHT22;6994;49.752;6.094;2023-05-27T08:41:05;18.40;95.60
13848;DHT22;6994;49.752;6.094;2023-05-27T08:43:32;18.60;95.20
13848;DHT22;6994;49.752;6.094;2023-05-27T08:46:00;18.70;95.20
13848;DHT22;6994;49.752;6.094;2023-05-27T08:48:26;18.70;95.10
13848;DHT22;6994;49.752;6.094;2023-05-27T08:50:54;18.70;94.90
13848;DHT22;6994;49.752;6.094;2023-05-27T08:53:22;18.70;94.80
13848;DHT22;6994;49.752;6.094;2023-05-27T08:55:50;18.70;94.80
13848;DHT22;6994;49.752;6.094;2023-05-27T08:58:16;18.70;94.40
13848;DHT22;6994;49.752;6.094;2023-05-27T09:00:43;18.70;94.40
13848;DHT22;6994;49.752;6.094;2023-05-27T09:03:10;18.70;94.60
13848;DHT22;6994;49.752;6.094;2023-05-27T09:05:38;18.80;95.00
13848;DHT22;6994;49.752;6.094;2023-05-27T09:08:05;19.00;95.30
13848;DHT22;6994;49.752;6.094;2023-05-27T09:10:38;19.20;95.20
13848;DHT22;6994;49.752;6.094;2023-05-27T09:13:05;19.20;94.30
13848;DHT22;6994;49.752;6.094;2023-05-27T09:15:32;19.30;94.00
13848;DHT22;6994;49.752;6.094;2023-05-27T09:17:59;19.30;94.00
13848;DHT22;6994;49.752;6.094;2023-05-27T09:20:28;19.40;94.10
13848;DHT22;6994;49.752;6.094;2023-05-27T09:22:58;19.30;94.00
13848;DHT22;6994;49.752;6.094;2023-05-27T09:25:26;19.50;94.20
13848;DHT22;6994;49.752;6.094;2023-05-27T09:27:53;19.50;94.10
13848;DHT22;6994;49.752;6.094;2023-05-27T09:30:20;19.60;94.00
13848;DHT22;6994;49.752;6.094;2023-05-27T09:32:47;19.60;94.00
13848;DHT22;6994;49.752;6.094;2023-05-27T09:35:17;19.70;93.70
13848;DHT22;6994;49.752;6.094;2023-05-27T09:37:41;19.80;93.70
13848;DHT22;6994;49.752;6.094;2023-05-27T09:40:13;20.10;91.60
13848;DHT22;6994;49.752;6.094;2023-05-27T09:42:42;20.20;92.30
13848;DHT22;6994;49.752;6.094;2023-05-27T09:45:16;20.20;91.60
13848;DHT22;6994;49.752;6.094;2023-05-27T09:47:43;20.20;92.00
13848;DHT22;6994;49.752;6.094;2023-05-27T09:50:08;20.50;91.00
13848;DHT22;6994;49.752;6.094;2023-05-27T09:52:38;20.60;91.30
13848;DHT22;6994;49.752;6.094;2023-05-27T09:55:08;20.80;91.70
13848;DHT22;6994;49.752;6.094;2023-05-27T09:57:35;20.90;91.00
13848;DHT22;6994;49.752;6.094;2023-05-27T10:00:06;20.90;91.00
13848;DHT22;6994;49.752;6.094;2023-05-27T10:02:35;20.90;91.30
13848;DHT22;6994;49.752;6.094;2023-05-27T10:05:03;20.90;90.00
13848;DHT22;6994;49.752;6.094;2023-05-27T10:07:30;21.00;90.40
13848;DHT22;6994;49.752;6.094;2023-05-27T10:09:57;21.00;90.80
13848;DHT22;6994;49.752;6.094;2023-05-27T10:12:24;21.30;87.80
13848;DHT22;6994;49.752;6.094;2023-05-27T10:14:51;21.40;88.00
13848;DHT22;6994;49.752;6.094;2023-05-27T10:17:18;21.40;87.70
13848;DHT22;6994;49.752;6.094;2023-05-27T10:19:52;21.40;88.80
13848;DHT22;6994;49.752;6.094;2023-05-27T10:22:17;21.50;85.80
13848;DHT22;6994;49.752;6.094;2023-05-27T10:24:45;21.50;85.80
13848;DHT22;6994;49.752;6.094;2023-05-27T10:27:11;21.70;85.60
13848;DHT22;6994;49.752;6.094;2023-05-27T10:29:38;21.70;85.10
13848;DHT22;6994;49.752;6.094;2023-05-27T10:32:05;21.90;85.70
13848;DHT22;6994;49.752;6.094;2023-05-27T10:34:36;22.10;85.70
13848;DHT22;6994;49.752;6.094;2023-05-27T10:37:03;22.50;82.90
13848;DHT22;6994;49.752;6.094;2023-05-27T10:39:30;23.00;82.10
13848;DHT22;6994;49.752;6.094;2023-05-27T10:41:57;23.20;82.30
13848;DHT22;6994;49.752;6.094;2023-05-27T10:44:34;23.30;82.70
13848;DHT22;6994;49.752;6.094;2023-05-27T10:47:01;23.30;82.30
13848;DHT22;6994;49.752;6.094;2023-05-27T10:49:34;23.40;81.50
13848;DHT22;6994;49.752;6.094;2023-05-27T10:52:09;23.70;78.20
13848;DHT22;6994;49.752;6.094;2023-05-27T10:54:36;23.80;79.50
13848;DHT22;6994;49.752;6.094;2023-05-27T10:57:03;23.80;81.00
13848;DHT22;6994;49.752;6.094;2023-05-27T10:59:53;24.30;81.10
13848;DHT22;6994;49.752;6.094;2023-05-27T11:01:59;24.30;78.00
13848;DHT22;6994;49.752;6.094;2023-05-27T11:04:27;24.30;81.70
13848;DHT22;6994;49.752;6.094;2023-05-27T11:07:00;24.30;80.80
13848;DHT22;6994;49.752;6.094;2023-05-27T11:09:27;24.30;81.50
13848;DHT22;6994;49.752;6.094;2023-05-27T11:11:56;24.40;82.10
13848;DHT22;6994;49.752;6.094;2023-05-27T11:14:23;24.50;79.70
13848;DHT22;6994;49.752;6.094;2023-05-27T11:16:51;24.70;80.70
13848;DHT22;6994;49.752;6.094;2023-05-27T11:19:19;24.80;78.90
13848;DHT22;6994;49.752;6.094;2023-05-27T11:21:45;25.00;80.40
13848;DHT22;6994;49.752;6.094;2023-05-27T11:24:16;25.20;80.70
13848;DHT22;6994;49.752;6.094;2023-05-27T11:26:46;26.80;76.30
13848;DHT22;6994;49.752;6.094;2023-05-27T11:29:13;26.70;76.20
13848;DHT22;6994;49.752;6.094;2023-05-27T11:31:40;27.60;76.60
13848;DHT22;6994;49.752;6.094;2023-05-27T11:34:14;28.40;73.70
13848;DHT22;6994;49.752;6.094;2023-05-27T11:36:41;29.20;74.30
13848;DHT22;6994;49.752;6.094;2023-05-27T11:39:10;29.90;71.50
13848;DHT22;6994;49.752;6.094;2023-05-27T11:41:35;30.50;71.50
13848;DHT22;6994;49.752;6.094;2023-05-27T11:44:06;31.10;71.10
13848;DHT22;6994;49.752;6.094;2023-05-27T11:46:41;31.60;67.20
13848;DHT22;6994;49.752;6.094;2023-05-27T11:49:09;32.10;65.40
13848;DHT22;6994;49.752;6.094;2023-05-27T11:51:42;32.50;62.60
13848;DHT22;6994;49.752;6.094;2023-05-27T11:54:05;33.70;61.30
13848;DHT22;6994;49.752;6.094;2023-05-27T11:56:32;33.80;59.30
13848;DHT22;6994;49.752;6.094;2023-05-27T11:59:00;34.00;60.10
13848;DHT22;6994;49.752;6.094;2023-05-27T12:01:28;35.40;54.30
13848;DHT22;6994;49.752;6.094;2023-05-27T12:03:55;35.30;54.30
13848;DHT22;6994;49.752;6.094;2023-05-27T12:06:22;35.20;54.30
13848;DHT22;6994;49.752;6.094;2023-05-27T12:08:49;35.20;59.50
13848;DHT22;6994;49.752;6.094;2023-05-27T12:11:16;36.30;52.60
13848;DHT22;6994;49.752;6.094;2023-05-27T12:13:44;36.20;53.60
13848;DHT22;6994;49.752;6.094;2023-05-27T12:16:11;37.10;52.10
13848;DHT22;6994;49.752;6.094;2023-05-27T12:18:38;36.80;50.10
13848;DHT22;6994;49.752;6.094;2023-05-27T12:21:06;36.50;51.10
13848;DHT22;6994;49.752;6.094;2023-05-27T12:23:34;36.40;52.10
13848;DHT22;6994;49.752;6.094;2023-05-27T12:26:02;36.50;51.20
13848;DHT22;6994;49.752;6.094;2023-05-27T12:28:29;36.50;51.10
13848;DHT22;6994;49.752;6.094;2023-05-27T12:30:56;36.40;48.70
13848;DHT22;6994;49.752;6.094;2023-05-27T12:33:24;36.30;48.90
13848;DHT22;6994;49.752;6.094;2023-05-27T12:35:52;36.30;48.80
13848;DHT22;6994;49.752;6.094;2023-05-27T12:38:19;36.20;48.50
13848;DHT22;6994;49.752;6.094;2023-05-27T12:40:46;36.20;48.20
13848;DHT22;6994;49.752;6.094;2023-05-27T12:43:13;37.00;46.50
13848;DHT22;6994;49.752;6.094;2023-05-27T12:45:40;36.40;47.00
13848;DHT22;6994;49.752;6.094;2023-05-27T12:48:08;36.80;48.00
13848;DHT22;6994;49.752;6.094;2023-05-27T12:50:35;36.50;48.60
13848;DHT22;6994;49.752;6.094;2023-05-27T12:53:02;36.50;48.90
13848;DHT22;6994;49.752;6.094;2023-05-27T12:55:29;36.60;48.50
13848;DHT22;6994;49.752;6.094;2023-05-27T12:57:57;36.90;49.30
13848;DHT22;6994;49.752;6.094;2023-05-27T13:00:25;36.90;47.20
13848;DHT22;6994;49.752;6.094;2023-05-27T13:02:53;36.80;46.90
13848;DHT22;6994;49.752;6.094;2023-05-27T13:05:21;36.90;47.00
13848;DHT22;6994;49.752;6.094;2023-05-27T13:07:58;36.90;46.90
13848;DHT22;6994;49.752;6.094;2023-05-27T13:10:24;37.10;48.10
13848;DHT22;6994;49.752;6.094;2023-05-27T13:12:51;37.30;46.80
13848;DHT22;6994;49.752;6.094;2023-05-27T13:15:19;37.50;45.80
13848;DHT22;6994;49.752;6.094;2023-05-27T13:17:46;37.50;46.10
13848;DHT22;6994;49.752;6.094;2023-05-27T13:20:13;37.70;47.70
13848;DHT22;6994;49.752;6.094;2023-05-27T13:22:41;37.90;45.20
13848;DHT22;6994;49.752;6.094;2023-05-27T13:25:07;38.20;45.40
13848;DHT22;6994;49.752;6.094;2023-05-27T13:27:34;38.30;44.40
13848;DHT22;6994;49.752;6.094;2023-05-27T13:30:02;39.40;43.00
13848;DHT22;6994;49.752;6.094;2023-05-27T13:32:29;40.10;40.90
13848;DHT22;6994;49.752;6.094;2023-05-27T13:34:57;40.20;40.60
13848;DHT22;6994;49.752;6.094;2023-05-27T13:37:24;40.20;40.50
13848;DHT22;6994;49.752;6.094;2023-05-27T13:39:51;39.50;42.90
13848;DHT22;6994;49.752;6.094;2023-05-27T13:42:19;39.30;43.00
13848;DHT22;6994;49.752;6.094;2023-05-27T13:44:46;39.20;43.80
13848;DHT22;6994;49.752;6.094;2023-05-27T13:47:13;39.20;42.20
13848;DHT22;6994;49.752;6.094;2023-05-27T13:49:40;39.40;43.20
13848;DHT22;6994;49.752;6.094;2023-05-27T13:52:07;39.60;42.10
13848;DHT22;6994;49.752;6.094;2023-05-27T13:54:35;40.90;42.30
13848;DHT22;6994;49.752;6.094;2023-05-27T13:57:02;40.80;41.00
13848;DHT22;6994;49.752;6.094;2023-05-27T13:59:29;40.80;40.20
13848;DHT22;6994;49.752;6.094;2023-05-27T14:01:56;40.80;40.00
13848;DHT22;6994;49.752;6.094;2023-05-27T14:04:24;40.60;40.40
13848;DHT22;6994;49.752;6.094;2023-05-27T14:06:52;40.40;40.90
13848;DHT22;6994;49.752;6.094;2023-05-27T14:09:20;40.40;40.10
13848;DHT22;6994;49.752;6.094;2023-05-27T14:11:47;40.40;40.10
13848;DHT22;6994;49.752;6.094;2023-05-27T14:14:14;40.50;40.30
13848;DHT22;6994;49.752;6.094;2023-05-27T14:16:42;40.60;40.20
13848;DHT22;6994;49.752;6.094;2023-05-27T14:19:09;40.90;40.10
13848;DHT22;6994;49.752;6.094;2023-05-27T14:21:36;41.10;38.40
13848;DHT22;6994;49.752;6.094;2023-05-27T14:24:03;42.40;36.70
13848;DHT22;6994;49.752;6.094;2023-05-27T14:26:30;42.10;37.50
13848;DHT22;6994;49.752;6.094;2023-05-27T14:28:58;41.70;37.00
13848;DHT22;6994;49.752;6.094;2023-05-27T14:31:25;41.10;37.10
13848;DHT22;6994;49.752;6.094;2023-05-27T14:33:52;40.70;38.20
13848;DHT22;6994;49.752;6.094;2023-05-27T14:36:19;40.50;37.60
13848;DHT22;6994;49.752;6.094;2023-05-27T14:38:46;40.30;38.50
13848;DHT22;6994;49.752;6.094;2023-05-27T14:41:14;40.10;38.90
13848;DHT22;6994;49.752;6.094;2023-05-27T14:43:41;40.30;38.20
13848;DHT22;6994;49.752;6.094;2023-05-27T14:46:08;40.40;37.60
13848;DHT22;6994;49.752;6.094;2023-05-27T14:48:35;40.50;38.10
13848;DHT22;6994;49.752;6.094;2023-05-27T14:51:03;40.60;38.10
13848;DHT22;6994;49.752;6.094;2023-05-27T14:53:30;41.50;36.20
13848;DHT22;6994;49.752;6.094;2023-05-27T14:55:57;41.20;36.90
13848;DHT22;6994;49.752;6.094;2023-05-27T14:58:24;41.20;37.20
13848;DHT22;6994;49.752;6.094;2023-05-27T15:00:51;41.30;36.80
13848;DHT22;6994;49.752;6.094;2023-05-27T15:03:19;42.60;36.00
13848;DHT22;6994;49.752;6.094;2023-05-27T15:05:47;42.50;35.00
13848;DHT22;6994;49.752;6.094;2023-05-27T15:08:15;42.00;35.90
13848;DHT22;6994;49.752;6.094;2023-05-27T15:10:43;41.70;37.00
13848;DHT22;6994;49.752;6.094;2023-05-27T15:13:11;41.80;36.60
13848;DHT22;6994;49.752;6.094;2023-05-27T15:15:39;41.80;35.70
13848;DHT22;6994;49.752;6.094;2023-05-27T15:18:06;41.80;35.60
13848;DHT22;6994;49.752;6.094;2023-05-27T15:20:34;41.70;35.30
13848;DHT22;6994;49.752;6.094;2023-05-27T15:23:01;41.40;36.00
13848;DHT22;6994;49.752;6.094;2023-05-27T15:25:28;41.30;35.20
13848;DHT22;6994;49.752;6.094;2023-05-27T15:27:55;41.20;36.60
13848;DHT22;6994;49.752;6.094;2023-05-27T15:30:22;42.10;34.90
13848;DHT22;6994;49.752;6.094;2023-05-27T15:32:50;41.50;35.20
13848;DHT22;6994;49.752;6.094;2023-05-27T15:35:18;41.70;35.30
13848;DHT22;6994;49.752;6.094;2023-05-27T15:37:46;41.60;35.20
13848;DHT22;6994;49.752;6.094;2023-05-27T15:40:13;41.60;35.10
13848;DHT22;6994;49.752;6.094;2023-05-27T15:42:40;41.50;34.30
13848;DHT22;6994;49.752;6.094;2023-05-27T15:45:08;40.80;35.70
13848;DHT22;6994;49.752;6.094;2023-05-27T15:47:35;40.80;35.70